createdAt,value
2019-02-25T00:00:03.703Z,2.10
2019-02-25T00:02:33.590Z,1.90
2019-02-25T00:05:03.437Z,2.00
2019-02-25T00:07:33.429Z,2.00
2019-02-25T00:10:03.445Z,1.80
2019-02-25T00:12:33.497Z,1.90
2019-02-25T00:15:03.549Z,2.50
2019-02-25T00:17:33.460Z,2.40
2019-02-25T00:20:03.413Z,2.30
2019-02-25T00:22:33.336Z,2.30
2019-02-25T00:25:03.412Z,2.10
2019-02-25T00:27:33.363Z,2.50
2019-02-25T00:30:03.471Z,2.60
2019-02-25T00:32:33.452Z,2.60
2019-02-25T00:35:03.593Z,2.30
2019-02-25T00:37:33.494Z,2.30
2019-02-25T00:40:03.483Z,2.50
2019-02-25T00:42:33.508Z,2.60
2019-02-25T00:45:03.457Z,2.90
2019-02-25T00:47:33.394Z,2.20
2019-02-25T00:50:03.503Z,1.70
2019-02-25T00:52:33.480Z,1.80
2019-02-25T00:55:03.553Z,1.80
2019-02-25T00:57:33.449Z,1.90
2019-02-25T01:00:03.535Z,2.30
2019-02-25T01:02:33.509Z,2.40
2019-02-25T01:05:03.488Z,2.40
2019-02-25T01:07:33.473Z,1.70
2019-02-25T01:10:03.476Z,1.60
2019-02-25T01:12:33.371Z,1.70
2019-02-25T01:15:03.339Z,1.80
2019-02-25T01:17:33.268Z,1.60
2019-02-25T01:20:03.301Z,1.40
2019-02-25T01:22:33.195Z,1.60
2019-02-25T01:25:03.111Z,1.70
2019-02-25T01:27:33.234Z,1.50
2019-02-25T01:30:03.225Z,1.70
2019-02-25T01:32:33.107Z,1.80
2019-02-25T01:35:03.091Z,2.10
2019-02-25T01:37:33.059Z,2.40
2019-02-25T01:40:03.035Z,2.30
2019-02-25T01:42:32.971Z,2.60
2019-02-25T01:45:02.961Z,2.60
2019-02-25T01:47:32.855Z,2.50
2019-02-25T01:50:03.065Z,2.40
2019-02-25T01:52:33.125Z,2.40
2019-02-25T01:55:03.207Z,2.20
2019-02-25T01:57:33.104Z,2.20
2019-02-25T02:00:03.131Z,2.40
2019-02-25T02:02:33.174Z,2.50
2019-02-25T02:05:03.193Z,2.70
2019-02-25T02:07:33.093Z,2.80
2019-02-25T02:10:03.039Z,2.70
2019-02-25T02:12:33.018Z,2.60
2019-02-25T02:15:02.963Z,2.30
2019-02-25T02:17:33.055Z,2.40
2019-02-25T02:20:02.995Z,2.30
2019-02-25T02:22:32.974Z,2.30
2019-02-25T02:25:03.045Z,2.20
2019-02-25T02:27:33.007Z,2.20
2019-02-25T02:30:03.033Z,2.50
2019-02-25T02:32:33.019Z,2.40
2019-02-25T02:35:02.937Z,2.20
2019-02-25T02:37:32.827Z,1.70
2019-02-25T02:40:02.774Z,1.20
2019-02-25T02:42:32.749Z,1.00
2019-02-25T02:45:24.584Z,1.40
2019-02-25T02:47:57.532Z,1.30
2019-02-25T02:50:27.542Z,1.30
2019-02-25T02:52:57.446Z,1.00
2019-02-25T02:55:27.407Z,1.20
2019-02-25T02:57:57.409Z,1.50
2019-02-25T03:00:27.329Z,1.70
2019-02-25T03:02:57.250Z,1.60
2019-02-25T03:05:27.170Z,1.50
2019-02-25T03:07:57.058Z,1.60
2019-02-25T03:10:27.062Z,2.10
2019-02-25T03:12:57.076Z,1.70
2019-02-25T03:15:26.997Z,1.40
2019-02-25T03:18:16.270Z,1.40
2019-02-25T03:20:46.215Z,1.40
2019-02-25T03:23:16.391Z,1.30
2019-02-25T03:25:46.409Z,1.50
2019-02-25T03:28:16.642Z,1.40
2019-02-25T03:30:46.682Z,1.50
2019-02-25T03:33:16.593Z,1.60
2019-02-25T03:35:46.566Z,1.70
2019-02-25T03:38:16.648Z,1.60
2019-02-25T03:40:46.623Z,1.60
2019-02-25T03:43:16.595Z,1.50
2019-02-25T03:45:46.696Z,1.40
2019-02-25T03:48:16.601Z,1.20
2019-02-25T03:50:46.761Z,1.50
2019-02-25T03:53:16.787Z,1.80
2019-02-25T03:55:46.820Z,1.80
2019-02-25T03:58:16.727Z,1.90
2019-02-25T04:00:46.800Z,1.90
2019-02-25T04:03:16.888Z,1.70
2019-02-25T04:05:47.068Z,1.70
2019-02-25T04:08:17.161Z,1.80
2019-02-25T04:10:47.175Z,1.60
2019-02-25T04:13:17.145Z,1.30
2019-02-25T04:15:47.324Z,1.00
2019-02-25T04:18:17.368Z,0.80
2019-02-25T04:20:47.406Z,1.10
2019-02-25T04:23:17.369Z,1.20
2019-02-25T04:25:47.465Z,1.40
2019-02-25T04:28:17.385Z,1.60
2019-02-25T04:30:47.445Z,1.70
2019-02-25T04:33:17.415Z,2.00
2019-02-25T04:35:47.501Z,2.10
2019-02-25T04:38:17.535Z,2.00
2019-02-25T04:40:47.540Z,2.10
2019-02-25T04:43:17.450Z,2.10
2019-02-25T04:45:47.485Z,2.10
2019-02-25T04:48:17.496Z,1.90
2019-02-25T04:50:47.414Z,2.00
2019-02-25T04:53:17.429Z,2.10
2019-02-25T04:55:47.424Z,2.10
2019-02-25T04:58:17.329Z,2.00
2019-02-25T05:00:47.244Z,2.10
2019-02-25T05:03:17.177Z,2.00
2019-02-25T05:05:47.181Z,1.70
2019-02-25T05:08:17.097Z,1.60
2019-02-25T05:10:47.008Z,1.60
2019-02-25T05:13:16.924Z,1.60
2019-02-25T05:15:47.012Z,1.40
2019-02-25T05:18:17.010Z,1.00
2019-02-25T05:20:46.972Z,1.50
2019-02-25T05:23:16.974Z,1.60
2019-02-25T05:25:47.095Z,1.80
2019-02-25T05:28:17.077Z,1.90
2019-02-25T05:30:47.564Z,1.90
2019-02-25T05:33:18.338Z,1.80
2019-02-25T05:35:49.540Z,1.90
2019-02-25T05:38:19.561Z,1.90
2019-02-25T05:40:49.646Z,1.70
2019-02-25T05:43:20.753Z,1.40
2019-02-25T05:45:51.042Z,1.50
2019-02-25T05:48:20.916Z,1.10
2019-02-25T05:50:50.934Z,1.40
2019-02-25T05:53:20.864Z,1.60
2019-02-25T05:55:50.766Z,1.40
2019-02-25T05:58:20.893Z,1.40
2019-02-25T06:00:50.798Z,0.60
2019-02-25T06:03:20.964Z,0.40
2019-02-25T06:05:50.929Z,0.80
2019-02-25T06:08:20.994Z,0.90
2019-02-25T06:10:50.898Z,0.90
2019-02-25T06:13:20.944Z,1.10
2019-02-25T06:15:51.472Z,1.00
2019-02-25T06:18:21.415Z,1.20
2019-02-25T06:20:51.617Z,1.40
2019-02-25T06:23:21.559Z,1.50
2019-02-25T06:25:52.488Z,1.50
2019-02-25T06:28:22.436Z,1.50
2019-02-25T06:30:52.407Z,1.60
2019-02-25T06:33:23.035Z,1.90
2019-02-25T06:35:52.957Z,2.00
2019-02-25T06:38:22.883Z,2.00
2019-02-25T06:40:52.851Z,2.20
2019-02-25T06:43:22.768Z,2.30
2019-02-25T06:45:52.732Z,2.70
2019-02-25T06:48:22.661Z,2.70
2019-02-25T06:50:52.712Z,3.00
2019-02-25T06:53:22.665Z,3.40
2019-02-25T06:55:52.638Z,3.70
2019-02-25T06:58:23.205Z,3.60
2019-02-25T07:00:53.219Z,3.70
2019-02-25T07:03:23.124Z,3.90
2019-02-25T07:06:12.054Z,4.00
2019-02-25T07:09:10.134Z,4.10
2019-02-25T07:11:45.650Z,4.80
2019-02-25T07:14:33.537Z,6.00
2019-02-25T07:17:22.732Z,6.50
2019-02-25T07:20:20.907Z,7.20
2019-02-25T07:23:09.866Z,7.90
2019-02-25T07:25:53.140Z,8.80
2019-02-25T07:28:42.146Z,9.20
2019-02-25T07:31:49.320Z,9.00
2019-02-25T07:34:26.087Z,9.10
2019-02-25T07:37:18.241Z,8.80
2019-02-25T07:40:05.846Z,7.90
2019-02-25T07:43:06.812Z,7.80
2019-02-25T07:45:45.992Z,9.20
2019-02-25T07:48:33.079Z,10.30
2019-02-25T07:51:12.563Z,10.50
2019-02-25T07:54:07.840Z,11.30
2019-02-25T07:57:02.862Z,11.10
2019-02-25T07:59:51.137Z,9.50
2019-02-25T08:02:43.092Z,10.70
2019-02-25T08:05:30.846Z,12.40
2019-02-25T08:08:08.504Z,13.30
2019-02-25T08:10:44.947Z,12.20
2019-02-25T08:13:46.228Z,11.70
2019-02-25T08:16:35.169Z,12.50
2019-02-25T08:19:15.252Z,13.30
2019-02-25T08:22:03.965Z,14.20
2019-02-25T08:24:52.932Z,12.50
2019-02-25T08:27:42.354Z,14.00
2019-02-25T08:30:19.411Z,14.30
2019-02-25T08:33:17.619Z,14.10
2019-02-25T08:36:45.930Z,14.30
2019-02-25T08:39:25.092Z,14.40
2019-02-25T08:42:09.133Z,14.20
2019-02-25T08:44:50.324Z,13.60
2019-02-25T08:47:42.295Z,12.70
2019-02-25T08:50:13.717Z,13.80
2019-02-25T08:52:43.689Z,15.10
2019-02-25T08:55:13.614Z,15.70
2019-02-25T08:57:43.534Z,14.40
2019-02-25T09:00:14.028Z,14.80
2019-02-25T09:02:44.088Z,15.00
2019-02-25T09:05:14.406Z,14.00
2019-02-25T09:07:44.409Z,13.40
2019-02-25T09:10:17.201Z,13.70
2019-02-25T09:12:48.794Z,12.70
2019-02-25T09:15:19.616Z,12.40
2019-02-25T09:17:48.292Z,12.20
2019-02-25T09:20:18.222Z,12.00
2019-02-25T09:22:48.191Z,11.60
2019-02-25T09:25:18.149Z,11.40
2019-02-25T09:27:48.053Z,10.90
2019-02-25T09:30:17.967Z,10.80
2019-02-25T09:32:48.475Z,11.30
2019-02-25T09:35:18.539Z,11.20
2019-02-25T09:37:48.508Z,11.30
2019-02-25T09:40:18.388Z,11.60
2019-02-25T09:42:48.290Z,11.60
2019-02-25T09:45:19.067Z,11.80
2019-02-25T09:47:48.964Z,12.00
2019-02-25T09:50:19.032Z,12.30
2019-02-25T09:52:48.927Z,12.40
2019-02-25T09:55:18.972Z,12.50
2019-02-25T09:57:48.948Z,12.80
2019-02-25T10:00:19.153Z,13.10
2019-02-25T10:02:49.709Z,12.90
2019-02-25T10:05:19.657Z,13.30
2019-02-25T10:07:49.558Z,13.50
2019-02-25T10:10:19.585Z,13.90
2019-02-25T10:12:49.516Z,14.30
2019-02-25T10:15:19.556Z,14.30
2019-02-25T10:17:49.475Z,13.70
2019-02-25T10:20:19.572Z,13.70
2019-02-25T10:22:50.018Z,13.50
2019-02-25T10:25:19.896Z,13.30
2019-02-25T10:27:49.915Z,13.20
2019-02-25T10:30:19.934Z,12.90
2019-02-25T10:32:49.936Z,12.60
2019-02-25T10:35:20.349Z,12.30
2019-02-25T10:37:50.301Z,12.10
2019-02-25T10:40:24.049Z,12.10
2019-02-25T10:42:54.662Z,12.00
2019-02-25T10:45:24.723Z,11.90
2019-02-25T10:47:58.490Z,11.90
2019-02-25T10:50:26.270Z,11.90
2019-02-25T10:53:03.252Z,11.80
2019-02-25T10:55:30.888Z,11.60
2019-02-25T10:58:02.053Z,11.40
2019-02-25T11:00:32.425Z,11.30
2019-02-25T11:03:02.444Z,11.40
2019-02-25T11:05:32.367Z,11.60
2019-02-25T11:08:05.376Z,11.80
2019-02-25T11:10:41.704Z,12.00
2019-02-25T11:13:11.778Z,12.30
2019-02-25T11:15:42.428Z,12.50
2019-02-25T11:18:13.424Z,12.60
2019-02-25T11:20:43.404Z,12.60
2019-02-25T11:23:15.403Z,12.50
2019-02-25T11:25:44.925Z,12.50
2019-02-25T11:28:23.582Z,12.50
2019-02-25T11:30:47.573Z,12.50
2019-02-25T11:33:18.316Z,12.60
2019-02-25T11:35:48.455Z,12.60
2019-02-25T11:38:18.531Z,12.70
2019-02-25T11:40:48.410Z,12.80
2019-02-25T11:43:18.814Z,12.80
2019-02-25T11:45:49.885Z,12.90
2019-02-25T11:48:19.849Z,13.00
2019-02-25T11:50:49.950Z,13.00
2019-02-25T11:53:19.945Z,13.00
2019-02-25T11:55:49.928Z,13.00
2019-02-25T11:58:19.975Z,13.10
2019-02-25T12:00:49.861Z,13.20
2019-02-25T12:03:19.779Z,13.20
2019-02-25T12:05:49.655Z,13.40
2019-02-25T12:08:19.652Z,13.50
2019-02-25T12:10:49.683Z,13.60
2019-02-25T12:13:19.599Z,13.70
2019-02-25T12:15:49.525Z,13.70
2019-02-25T12:18:19.512Z,13.70
2019-02-25T12:20:49.530Z,13.60
2019-02-25T12:23:19.583Z,13.60
2019-02-25T12:25:49.567Z,13.80
2019-02-25T12:28:19.515Z,13.80
2019-02-25T12:30:49.398Z,13.90
2019-02-25T12:33:19.433Z,13.90
2019-02-25T12:35:49.341Z,14.00
2019-02-25T12:38:19.272Z,14.10
2019-02-25T12:40:49.258Z,14.20
2019-02-25T12:43:19.209Z,14.20
2019-02-25T12:45:49.492Z,14.20
2019-02-25T12:48:19.421Z,14.30
2019-02-25T12:50:49.364Z,14.40
2019-02-25T12:53:19.369Z,14.50
2019-02-25T12:55:49.420Z,14.60
2019-02-25T12:58:19.425Z,14.70
2019-02-25T13:00:49.416Z,14.70
2019-02-25T13:03:19.412Z,14.80
2019-02-25T13:05:49.308Z,14.90
2019-02-25T13:08:19.424Z,15.00
2019-02-25T13:10:51.218Z,15.00
2019-02-25T13:13:21.091Z,15.10
2019-02-25T13:15:51.069Z,15.00
2019-02-25T13:18:21.109Z,14.90
2019-02-25T13:20:51.112Z,14.90
2019-02-25T13:23:21.247Z,14.80
2019-02-25T13:25:52.300Z,14.60
2019-02-25T13:28:23.549Z,14.60
2019-02-25T13:30:54.121Z,14.50
2019-02-25T13:33:24.115Z,14.80
2019-02-25T13:35:54.096Z,15.00
2019-02-25T13:38:24.030Z,15.00
2019-02-25T13:40:53.922Z,15.00
2019-02-25T13:43:23.926Z,14.90
2019-02-25T13:45:53.820Z,14.80
2019-02-25T13:48:23.752Z,14.80
2019-02-25T13:50:53.654Z,14.70
2019-02-25T13:53:23.860Z,14.70
2019-02-25T13:55:54.507Z,14.70
2019-02-25T13:58:24.514Z,14.80
2019-02-25T14:00:54.405Z,14.70
2019-02-25T14:03:24.361Z,14.60
2019-02-25T14:05:54.272Z,14.50
2019-02-25T14:08:24.232Z,14.60
2019-02-25T14:10:54.250Z,14.40
2019-02-25T14:13:24.238Z,14.30
2019-02-25T14:15:54.456Z,14.30
2019-02-25T14:18:24.429Z,14.50
2019-02-25T14:20:54.411Z,14.60
2019-02-25T14:23:24.689Z,14.80
2019-02-25T14:25:57.281Z,14.80
2019-02-25T14:28:26.643Z,14.80
2019-02-25T14:30:56.556Z,14.50
2019-02-25T14:33:26.452Z,14.60
2019-02-25T14:35:56.485Z,14.80
2019-02-25T14:38:27.633Z,14.80
2019-02-25T14:40:58.710Z,14.90
2019-02-25T14:43:28.839Z,14.90
2019-02-25T14:45:59.489Z,14.90
2019-02-25T14:48:32.724Z,14.90
2019-02-25T14:51:02.020Z,14.80
2019-02-25T14:53:32.694Z,14.80
2019-02-25T14:56:04.054Z,14.60
2019-02-25T14:58:36.183Z,14.40
2019-02-25T15:01:06.540Z,14.20
2019-02-25T15:03:36.716Z,13.80
2019-02-25T15:06:06.653Z,13.70
2019-02-25T15:08:36.580Z,13.80
2019-02-25T15:11:08.714Z,13.80
2019-02-25T15:13:39.093Z,13.80
2019-02-25T15:16:09.172Z,13.90
2019-02-25T15:18:39.279Z,14.10
2019-02-25T15:21:11.077Z,13.90
2019-02-25T15:23:40.996Z,14.10
2019-02-25T15:26:10.995Z,14.20
2019-02-25T15:28:41.223Z,14.20
2019-02-25T15:31:12.057Z,14.10
2019-02-25T15:33:43.412Z,14.00
2019-02-25T15:36:17.472Z,13.90
2019-02-25T15:38:46.785Z,13.80
2019-02-25T15:41:16.726Z,13.90
2019-02-25T15:43:46.711Z,13.80
2019-02-25T15:46:18.988Z,13.80
2019-02-25T15:48:48.192Z,13.80
2019-02-25T15:51:18.526Z,13.60
2019-02-25T15:53:48.975Z,13.40
2019-02-25T15:56:20.117Z,13.20
2019-02-25T15:58:50.099Z,12.90
2019-02-25T16:01:20.107Z,12.80
2019-02-25T16:03:50.344Z,12.50
2019-02-25T16:06:20.584Z,12.30
2019-02-25T16:08:52.246Z,11.90
2019-02-25T16:11:25.599Z,11.70
2019-02-25T16:13:55.597Z,11.50
2019-02-25T16:16:25.420Z,11.40
2019-02-25T16:18:55.402Z,11.40
2019-02-25T16:21:26.615Z,11.30
2019-02-25T16:23:59.284Z,10.90
2019-02-25T16:26:28.708Z,10.70
2019-02-25T16:28:59.573Z,10.60
2019-02-25T16:31:30.911Z,10.80
2019-02-25T16:34:01.751Z,10.70
2019-02-25T16:36:32.803Z,10.60
2019-02-25T16:39:07.229Z,10.50
2019-02-25T16:41:37.073Z,10.50
2019-02-25T16:44:09.089Z,10.60
2019-02-25T16:46:41.742Z,10.60
2019-02-25T16:49:12.402Z,10.30
2019-02-25T16:51:42.320Z,10.10
2019-02-25T16:54:13.566Z,9.80
2019-02-25T16:56:44.256Z,9.60
2019-02-25T17:02:11.956Z,9.50
2019-02-25T17:04:41.141Z,9.50
2019-02-25T17:07:11.856Z,9.50
2019-02-25T17:09:43.719Z,9.40
2019-02-25T17:12:13.723Z,9.40
2019-02-25T17:14:43.792Z,9.20
2019-02-25T17:17:13.852Z,9.10
2019-02-25T17:19:43.750Z,9.20
2019-02-25T17:22:13.687Z,9.10
2019-02-25T17:24:43.666Z,9.20
2019-02-25T17:27:14.300Z,9.30
2019-02-25T17:29:44.335Z,9.30
2019-02-25T17:32:15.044Z,9.10
2019-02-25T17:34:45.791Z,8.70
2019-02-25T17:37:17.179Z,8.90
2019-02-25T17:39:47.131Z,8.90
2019-02-25T17:42:17.137Z,9.00
2019-02-25T17:44:48.052Z,9.20
2019-02-25T17:47:24.424Z,8.90
2019-02-25T17:49:49.486Z,8.90
2019-02-25T17:52:20.787Z,8.80
2019-02-25T17:54:51.413Z,8.50
2019-02-25T17:57:21.523Z,8.50
2019-02-25T17:59:52.725Z,8.60
2019-02-25T18:02:23.019Z,8.80
2019-02-25T18:04:53.267Z,8.80
2019-02-25T18:07:23.926Z,8.80
2019-02-25T18:09:53.877Z,8.40
2019-02-25T18:12:25.691Z,8.20
2019-02-25T18:14:55.741Z,7.50
2019-02-25T18:17:25.816Z,7.80
2019-02-25T18:19:56.802Z,7.70
2019-02-25T18:22:26.760Z,7.60
2019-02-25T18:24:56.669Z,7.50
2019-02-25T18:27:26.604Z,7.60
2019-02-25T18:29:57.395Z,7.80
2019-02-25T18:32:30.340Z,7.60
2019-02-25T18:35:00.534Z,7.90
2019-02-25T18:37:30.746Z,7.90
2019-02-25T18:40:00.677Z,8.00
2019-02-25T18:42:33.947Z,8.00
2019-02-25T18:45:02.316Z,8.10
2019-02-25T18:47:32.379Z,8.10
2019-02-25T18:50:07.182Z,8.10
2019-02-25T18:52:38.513Z,7.90
2019-02-25T18:55:11.156Z,7.90
2019-02-25T18:57:41.706Z,8.00
2019-02-25T19:00:15.116Z,8.00
2019-02-25T19:02:45.245Z,7.90
2019-02-25T19:05:15.204Z,7.90
2019-02-25T19:07:47.139Z,7.80
2019-02-25T19:10:18.256Z,7.70
2019-02-25T19:12:49.635Z,7.70
2019-02-25T19:15:20.756Z,7.60
2019-02-25T19:17:52.154Z,7.30
2019-02-25T19:20:22.368Z,7.20
2019-02-25T19:22:58.191Z,7.40
2019-02-25T19:25:25.942Z,7.30
2019-02-25T19:27:56.696Z,6.80
2019-02-25T19:30:29.691Z,6.80
2019-02-25T19:33:10.476Z,7.10
2019-02-25T19:35:33.018Z,7.20
2019-02-25T19:38:05.306Z,7.30
2019-02-25T19:40:38.395Z,7.20
2019-02-25T19:43:07.062Z,7.10
2019-02-25T19:45:38.588Z,7.10
2019-02-25T19:48:08.796Z,7.10
2019-02-25T19:50:50.198Z,7.00
2019-02-25T19:53:14.651Z,6.80
2019-02-25T19:55:43.970Z,6.80
2019-02-25T19:58:13.824Z,6.70
2019-02-25T20:00:44.531Z,6.50
2019-02-25T20:03:14.775Z,6.40
2019-02-25T20:05:46.357Z,6.60
2019-02-25T20:08:16.500Z,6.10
2019-02-25T20:10:46.507Z,5.80
2019-02-25T20:13:16.532Z,6.10
2019-02-25T20:15:47.434Z,6.30
2019-02-25T20:18:18.417Z,6.50
2019-02-25T20:20:48.665Z,6.40
2019-02-25T20:23:20.210Z,6.30
2019-02-25T20:25:51.152Z,6.30
2019-02-25T20:28:22.396Z,6.40
2019-02-25T20:30:53.877Z,6.30
2019-02-25T20:33:29.825Z,6.10
2019-02-25T20:35:56.053Z,6.30
2019-02-25T20:38:29.422Z,6.00
2019-02-25T20:41:00.113Z,5.00
2019-02-25T20:43:32.360Z,4.70
2019-02-25T20:46:04.032Z,5.10
2019-02-25T20:48:33.417Z,5.50
2019-02-25T20:51:04.731Z,5.60
2019-02-25T20:53:34.971Z,5.60
2019-02-25T20:56:04.941Z,5.60
2019-02-25T20:58:36.110Z,5.80
2019-02-25T21:01:09.164Z,5.90
2019-02-25T21:03:41.548Z,5.70
2019-02-25T21:06:10.542Z,5.20
2019-02-25T21:08:42.360Z,4.50
2019-02-25T21:11:13.940Z,4.20
2019-02-25T21:13:44.727Z,4.60
2019-02-25T21:16:16.185Z,4.90
2019-02-25T21:18:46.586Z,4.70
2019-02-25T21:21:17.887Z,4.90
2019-02-25T21:23:47.863Z,4.90
2019-02-25T21:26:17.786Z,4.90
2019-02-25T21:28:47.731Z,5.10
2019-02-25T21:31:19.554Z,5.40
2019-02-25T21:33:49.981Z,5.20
2019-02-25T21:36:20.999Z,4.60
2019-02-25T21:38:51.608Z,4.60
2019-02-25T21:41:22.656Z,4.50
2019-02-25T21:43:54.067Z,4.30
2019-02-25T21:46:26.452Z,3.90
2019-02-25T21:48:57.535Z,3.90
2019-02-25T21:51:32.675Z,4.50
2019-02-25T21:54:00.390Z,4.50
2019-02-25T21:56:31.321Z,3.90
2019-02-25T21:59:01.222Z,3.80
2019-02-25T22:01:32.323Z,3.60
2019-02-25T22:04:02.684Z,3.70
2019-02-25T22:06:33.264Z,3.70
2019-02-25T22:09:05.048Z,4.00
2019-02-25T22:11:35.069Z,4.20
2019-02-25T22:14:04.986Z,3.80
2019-02-25T22:16:43.657Z,3.50
2019-02-25T22:19:06.541Z,3.50
2019-02-25T22:21:36.492Z,3.60
2019-02-25T22:24:08.053Z,3.40
2019-02-25T22:26:37.948Z,3.50
2019-02-25T22:29:07.945Z,4.00
2019-02-25T22:31:40.073Z,4.10
2019-02-25T22:34:11.047Z,4.00
2019-02-25T22:36:43.792Z,4.40
2019-02-25T22:39:12.661Z,4.40
2019-02-25T22:41:44.447Z,4.00
2019-02-25T22:44:14.172Z,3.70
2019-02-25T22:46:44.202Z,3.40
2019-02-25T22:49:14.172Z,3.30
2019-02-25T22:51:44.171Z,3.60
2019-02-25T22:54:14.771Z,3.80
2019-02-25T22:56:45.926Z,3.70
2019-02-25T22:59:20.026Z,3.90
2019-02-25T23:01:47.442Z,4.10
2019-02-25T23:04:19.590Z,4.20
2019-02-25T23:06:51.252Z,4.30
2019-02-25T23:09:21.225Z,4.40
2019-02-25T23:11:53.215Z,4.40
2019-02-25T23:14:23.853Z,3.80
2019-02-25T23:16:54.011Z,3.40
2019-02-25T23:19:24.017Z,2.90
2019-02-25T23:21:53.930Z,2.60
2019-02-25T23:24:25.967Z,2.40
2019-02-25T23:26:57.355Z,2.30
2019-02-25T23:29:28.586Z,2.80
2019-02-25T23:32:01.898Z,3.00
2019-02-25T23:34:30.119Z,3.20
2019-02-25T23:37:00.108Z,3.60
2019-02-25T23:39:30.263Z,3.60
2019-02-25T23:42:04.682Z,3.60
2019-02-25T23:44:33.290Z,3.60
2019-02-25T23:47:04.401Z,3.50
2019-02-25T23:49:36.451Z,3.30
2019-02-25T23:52:06.492Z,3.40
2019-02-25T23:54:36.412Z,3.00
2019-02-25T23:57:06.343Z,3.30
2019-02-25T23:59:36.340Z,2.80
